Bookmark and Share
Track history (hours):
 

First Coast

More information available from US FCC via Universal Licensing System and Coast Guard Vessel Documentation Center.

Last reported at 2014-Apr-19 13:19 UTC. Time now 2014-Apr-19 14:29 UTC.
Position N 36°59' W 076°20'.

; draft 3.5 m.

Type: Tug. MMSI: 367024280.

NotesDate/timePositionNaut miles runAvg speedWind from/ knotsBaromVisibWave heightAir tempDewpointWater temp
2014-Apr-19 13:19N 36°59' W 076°20'4 4.0
2014-Apr-19 12:12N 37°01' W 076°15'118 6.3
2014-Apr-18 17:32N 38°58' W 076°23'8 7.2
2014-Apr-18 16:30N 39°06' W 076°24'7 6.3
2014-Apr-18 15:27N 39°11' W 076°28'5 5.1
2014-Apr-18 14:33N 39°13' W 076°34'1 1.1
2014-Apr-18 13:25N 39°13' W 076°35'0 0.0
2014-Apr-18 12:27N 39°13' W 076°35'0 0.0
2014-Apr-18 11:33N 39°13' W 076°35'0 0.5
2014-Apr-18 10:33N 39°13' W 076°35'1 0.8
2014-Apr-18 09:33N 39°13' W 076°34'0 0.0
2014-Apr-18 08:33N 39°13' W 076°34'0 0.0
2014-Apr-18 07:33N 39°13' W 076°34'0 0.0
2014-Apr-18 06:33N 39°13' W 076°34'0 0.0
2014-Apr-18 05:33N 39°13' W 076°34'0 0.0
2014-Apr-18 04:33N 39°13' W 076°34'0 0.0
2014-Apr-18 03:33N 39°13' W 076°34'1 1.3
2014-Apr-18 02:33N 39°13' W 076°32'7 6.9
2014-Apr-18 01:33N 39°09' W 076°25'7 7.4
2014-Apr-18 00:33N 39°02' W 076°23'5 5.4
2014-Apr-17 23:34N 38°57' W 076°24'6 4.4
2014-Apr-17 22:11N 38°51' W 076°26'6 2.0
2014-Apr-17 19:17N 38°57' W 076°24'5 6.6
2014-Apr-17 18:34N 39°01' W 076°22'6 6.1
2014-Apr-17 17:33N 39°07' W 076°20'  
2014-Apr-15 08:34N 38°57' W 076°24'105 8.8
2014-Apr-14 20:33N 37°12' W 076°10'7 7.5
2014-Apr-14 19:33N 37°05' W 076°10'5 5.1
2014-Apr-14 18:33N 37°00' W 076°13'7 7.2
2014-Apr-14 17:33N 36°56' W 076°20'6 6.2
2014-Apr-14 16:33N 36°50' W 076°17'2 2.5
2014-Apr-14 15:33N 36°52' W 076°19'5 4.7
2014-Apr-14 14:33N 36°57' W 076°20'5 4.9
2014-Apr-14 13:34N 36°58' W 076°26'0 0.0
2014-Apr-13 11:32N 36°58' W 076°26'5 5.4
2014-Apr-13 10:34N 36°59' W 076°20'4 3.7
2014-Apr-13 09:33N 37°01' W 076°16'4 3.7
2014-Apr-13 08:33N 36°60' W 076°11'3 2.9
2014-Apr-13 07:30N 37°02' W 076°09'3 3.6
2014-Apr-13 06:33N 37°05' W 076°10'4 3.8
2014-Apr-13 05:34N 37°09' W 076°10'4 3.6
2014-Apr-13 04:33N 37°13' W 076°10'4 3.8
2014-Apr-13 03:33N 37°17' W 076°10'100 5.6
2014-Apr-12 09:28N 38°56' W 076°24'6 6.5
2014-Apr-12 08:33N 39°02' W 076°22'6 6.0
2014-Apr-12 07:33N 39°08' W 076°20'7 6.7
2014-Apr-12 06:29N 39°14' W 076°15'7 0.1
2014-Apr-10 10:06N 39°08' W 076°19'4 7.8
2014-Apr-10 09:33N 39°04' W 076°21'7 7.5
2014-Apr-10 08:33N 38°57' W 076°24'7 7.3
2014-Apr-10 07:33N 38°50' W 076°26'101 8.5
2014-Apr-09 19:33N 37°09' W 076°10'8 7.9
2014-Apr-09 18:33N 37°02' W 076°09'7 7.3
2014-Apr-09 17:33N 36°60' W 076°18'7 7.3
2014-Apr-09 16:33N 36°58' W 076°26'  

Dump ship's entire track history

sailing weather and tide predictions

First Coast — WCR9075 — position and weather